x

9439040 - Astoria, Or (asto3) Weather Station

5:48 - Sun 29th Mar 2015 All times are PDT. -7 hours from GMT.

  • Wind
    7mph, 13mph gusts
  • Sea Temp 51°f
  • Air Temp 55°f
  • Sea Pressure 1023.7mb
  • 9439040 - Astoria, Or
  • 9439040 - Astoria, Or

More Historic Weather Station data

Upgrade to MSW Pro to gain access to the past 30 days of data for over 8000 Wavebouys and Weather Stations around the globe.

Join Pro

Comparision Forecast

View Surf forecast
   
dim. 03/29 5:48 7 13 mph 1023.7mb 51f 55f
5:42 8 11 mph 1023.7mb 52f 55f
5:36 9 14 mph 1023.7mb 51f 56f
5:30 8 11 mph 1023.7mb 51f 56f
5:24 8 10 mph 1023.9mb 51f 56f
5:18 3 7 mph - - -
5:12 7 13 mph 1023.9mb 51f 56f
5:06 10 14 mph 1023.9mb 51f 56f
5:00 6 8 mph 1023.9mb 51f 55f
4:54 6 7 mph 1024mb 51f 55f
4:48 6
mph
1024mb 51f 56f
4:42 5 6 mph 1024mb 51f 56f
4:30 3 7 mph 1024.2mb 51f 56f
4:24 5 7 mph 1024.3mb 51f 55f
4:18 5 8 mph 1024.4mb 51f 55f
4:12 5 6 mph 1024.4mb 51f 55f
4:06 6 9 mph 1024.4mb 51f 55f
4:00 7 13 mph 1024.4mb 51f 55f
3:54 8 11 mph 1024.5mb 51f 55f
3:48 8 14 mph 1024.5mb 51f 55f
3:42 10 15 mph 1024.5mb 51f 55f
3:36 13 16 mph 1024.5mb 51f 55f
3:30 14 16 mph 1024.6mb 51f 55f
3:24 14 18 mph 1024.8mb 51f 55f
3:18 15 17 mph 1024.8mb 51f 55f
3:12 10 15 mph 1024.8mb 51f 55f
3:06 11 14 mph 1024.8mb 51f 55f
3:00 9 16 mph 1024.9mb 51f 55f
2:48 14 16 mph 1025mb 51f 55f
2:42 11 15 mph 1025.1mb 51f 55f
2:36 11 15 mph 1025.3mb 51f 55f
2:30 11 14 mph 1025.4mb 51f 55f
2:24 10 14 mph 1025.4mb 51f 55f
2:18 11 16 mph 1025.4mb 51f 55f
2:12 2 6 mph 1025.5mb 51f 55f
2:06 2 3 mph 1025.5mb 51f 55f
2:00 1 3 mph 1025.5mb 51f 55f
1:54 3 5 mph 1025.5mb 51f 55f
1:36 3 6 mph 1025.7mb 51f 52f
1:30 5 6 mph 1025.8mb 51f 52f
1:24 3
mph
1025.7mb 51f 52f
1:18 2 3 mph 1025.8mb 51f 52f
1:12 2 5 mph 1025.7mb 51f 52f
1:06 2 5 mph 1025.8mb 51f 52f
1:00 5
mph
1025.8mb 51f 52f
12:54 5 6 mph 1025.8mb 51f 52f
12:48 5 6 mph 1025.9mb 51f -
12:42 5 6 mph 1025.8mb 51f 51f
12:36 5
mph
1025.8mb 51f 52f
12:30 3 5 mph 1025.8mb 51f 52f
12:18 5 6 mph 1025.9mb 51f 52f
12:12 5 6 mph 1025.9mb 51f 52f
12:06 2 3 mph 1026mb 51f 53f
12:00 3 5 mph 1026.1mb 51f 52f
11:54 5
mph
1026.2mb 51f 52f
11:48 3 6 mph 1026.3mb 51f 52f
11:42 5 6 mph 1026.4mb 51f 52f
11:36 5 6 mph 1026.5mb 51f 51f
11:30 2 5 mph 1026.5mb 51f 52f
11:24 2 3 mph 1026.4mb 51f 53f
11:18 2
mph
1026.4mb 51f 53f
11:12 1 5 mph 1026.4mb 51f 53f
11:00 5 7 mph 1026.4mb 51f 51f
10:54 5 8 mph 1026.3mb 51f 51f
10:48 6 8 mph 1026.4mb 51f 51f
10:42 3 5 mph 1026.5mb 51f 51f
10:36 2 5 mph 1026.6mb 51f 51f
10:30 3 7 mph 1026.7mb 51f 50f
10:24 1 6 mph 1026.6mb 51f 50f
10:06 1 3 mph 1026.5mb 50f 49f
10:00 3 7 mph 1026.4mb 50f -
9:54 6 8 mph 1026.3mb 50f 48f
9:48 6 10 mph 1026.3mb 51f 48f
9:42 5 8 mph 1026.2mb 51f 48f
9:36 7 10 mph 1026.3mb 51f 48f
9:30 7 10 mph 1026.2mb 51f 48f
9:18 6 8 mph 1026.2mb 51f 47f
9:12 3 6 mph 1026.2mb 50f 47f
9:06 5 7 mph 1026.3mb 50f 47f
9:00 5 9 mph 1026.2mb 50f 47f
8:54 5 6 mph 1026.1mb 51f 47f
8:48 5 6 mph 1026.2mb 51f 47f
8:42 5 7 mph 1026.3mb 51f 47f
8:36 2 5 mph 1026.4mb 51f 47f
8:30 5 9 mph 1026.3mb 51f 47f
8:24 8 10 mph 1026.2mb 50f 47f
8:18 8 9 mph 1026.1mb 50f 47f
8:12 9 11 mph 1026.1mb 50f 47f
8:06 7 10 mph 1026.1mb 50f 47f
8:00 6 8 mph 1026.1mb 50f 47f
7:54 3 8 mph 1026.2mb 50f 47f
7:48 2 7 mph 1026.2mb 50f 47f
7:42 3 7 mph 1026.2mb 51f 47f
7:30  -  2 mph 1026.3mb 51f 46f
7:24 3 5 mph 1026.3mb 51f 46f
7:18 3 5 mph 1026.2mb 51f 46f
7:12 2 5 mph 1026.2mb 51f 46f
7:00 2 3 mph 1026.2mb 51f 46f
6:54  -  2 mph 1026.2mb 51f 46f
6:48 2
mph
1026.2mb 51f 46f
6:42 1 2 mph 1026.1mb 51f 46f
6:36 2
mph
1026.1mb 51f 46f
6:30 1 2 mph 1026.2mb 51f 46f
6:24 3 6 mph 1026.1mb 51f 46f
6:18 5 6 mph 1025.9mb 51f 46f
6:12 3 5 mph 1025.9mb 51f 47f
6:06 1 2 mph 1026mb 51f 46f
6:00  -  2 mph 1026mb 51f 46f
5:54 1 3 mph 1026mb 51f 46f
5:48 3 5 mph 1026mb 51f 47f
5:42 3 6 mph 1026.1mb 51f 47f
5:36 6 8 mph 1026.1mb 51f 47f
5:30 7 8 mph 1026.1mb 51f 47f
5:24 6 8 mph 1026.1mb 51f 47f
5:18 7 10 mph 1026.1mb 51f 47f
5:12 7 9 mph 1026.1mb 51f 47f
5:06 6 7 mph 1026.2mb 51f 47f
5:00 6 7 mph 1026.2mb 51f 47f
4:54 5 7 mph 1026.1mb 51f 47f
4:48 5 7 mph 1026.4mb 51f 47f
4:42 5 7 mph 1026.4mb 51f 47f
4:36  -  mph 1026.6mb 51f 47f
4:30  -  mph 1026.5mb 51f 47f
4:24  -  mph 1026.6mb 51f -
4:18  -  mph 1026.4mb - -
sam. 03/28 10:36 1 3 mph 1028.2mb 51f 50f
10:30 3 5 mph 1028.3mb 51f 50f
10:24 3 5 mph 1028.2mb 51f 50f
10:18 3 6 mph 1028.2mb 51f 50f
10:12 3 5 mph 1028.3mb 51f 50f
10:06 2 6 mph 1028.3mb 51f 50f
10:00 5 6 mph 1028.2mb 51f 51f
9:54 5
mph
1028.2mb 51f 51f
9:48 3 5 mph 1028.1mb 51f 51f
9:42 3 5 mph 1028mb 51f 52f
9:36 2 5 mph 1028mb 51f 51f
9:30 3 5 mph 1028.1mb 51f 51f
9:24 2 5 mph 1028.2mb 51f 51f
9:18  -  2 mph 1028.2mb 51f 51f
9:12 2 3 mph 1028.2mb 51f 51f
8:54 3
mph
1028.3mb 51f 52f
8:48 2 3 mph 1028.3mb 51f 52f
8:42 3 5 mph 1028.2mb 51f 52f
8:36 1 2 mph 1028.2mb 51f 52f
8:30  -  1 mph 1028.4mb 51f 52f
8:24 2 3 mph 1028.3mb 51f 52f
8:18 2 3 mph - - -
8:12 1 2 mph 1028.1mb 51f 52f
8:06  -  1 mph 1028.2mb 51f 52f
8:00 2 3 mph 1028.1mb 51f 53f
7:54 2 6 mph 1028.1mb 51f 52f
7:48 2 6 mph 1028mb 51f -
7:42 5 9 mph 1028mb 51f 52f
7:36 7 9 mph 1028.2mb 51f 53f
7:30 8 9 mph 1028.3mb 51f 53f
7:24 6 9 mph 1028.4mb 51f 53f
7:18 8 11 mph 1028.3mb 51f 53f
7:12 10 14 mph 1028.3mb 51f 53f
7:06 8 14 mph 1028.5mb 51f 53f
7:00 8 10 mph 1028.6mb 51f 53f
6:54 10 14 mph 1028.5mb 51f 53f
6:48 8 11 mph 1028.6mb 51f 53f
6:42 7 14 mph 1028.7mb 51f 53f
6:36 11 15 mph 1028.6mb 51f 53f
6:30 11 14 mph 1028.8mb 51f 53f
6:24 9 14 mph 1028.8mb 51f 53f
6:18 9 14 mph 1028.7mb 51f 53f
6:12 9 11 mph 1028.8mb 51f 53f
6:06 10 16 mph 1028.7mb 51f 54f
6:00 9 11 mph 1028.6mb 51f 53f
5:54 9 15 mph 1028.6mb 51f 53f
5:48 10 14 mph 1028.8mb 51f 53f
5:42 10 16 mph 1028.9mb 51f 53f
5:36 11 17 mph 1029mb 51f 53f
5:30 14 16 mph 1029.1mb 51f 53f
5:24 14 17 mph 1029.2mb 52f 53f
5:18 14 17 mph 1029.3mb 52f 54f
5:12 10 16 mph 1029.5mb 51f 53f
5:06 14 17 mph 1029.6mb 51f 54f
5:00 11 13 mph 1029.5mb 52f 54f
4:54 11 15 mph 1029.4mb 52f 54f
4:48 14 16 mph 1029.5mb 51f 54f
4:42 14 17 mph 1029.4mb 51f 54f
4:36 15 18 mph 1029.3mb 52f 55f
4:30 11 16 mph 1029.2mb 52f 55f
4:24 14 16 mph 1029.2mb 51f 55f
4:18 14 18 mph 1029.2mb 51f 55f
4:12 14 17 mph 1029.1mb 52f 55f
4:06 11 15 mph 1029.1mb 52f 55f
4:00 9 16 mph 1029.1mb 51f 55f
3:54 11 15 mph 1029mb 51f 55f
3:48 9 16 mph 1029.1mb 51f 55f
3:42 13 18 mph 1029.1mb 51f 55f
3:36 11 20 mph 1028.8mb 51f 55f
3:30 11 18 mph 1028.9mb 51f 55f
3:24 14 18 mph 1029.3mb 51f 54f
3:18 13 20 mph 1029.4mb 51f 54f
3:12 15 20 mph 1029.2mb 51f 54f
3:06 11 17 mph 1029.2mb 51f 55f
3:00 14 20 mph 1029.3mb 51f 55f
2:54 15 18 mph 1029.2mb 51f 55f
2:48 13 20 mph 1029.3mb 51f 54f
2:42 15 17 mph 1029.4mb 51f 54f
2:36 14 21 mph 1029.5mb 51f 54f
2:30 14 20 mph 1029.6mb 50f 54f
2:24 15 21 mph 1029.7mb 50f 54f
2:18 14 18 mph 1029.9mb 50f 54f
2:12 16 21 mph 1029.9mb 50f 54f
2:06 16 20 mph 1029.9mb 50f 54f
2:00 15 21 mph 1029.9mb 50f 54f
1:54 17 21 mph 1030mb 51f 54f
1:48 14 20 mph 1029.9mb 50f 54f
1:42 16 21 mph 1029.9mb 50f 54f
1:36 14 20 mph 1030mb 50f 54f
1:30 14 21 mph 1029.8mb 50f 54f
1:24 16 22 mph 1029.8mb 50f 54f
1:18 16 22 mph 1029.7mb 50f 54f
1:12 10 17 mph 1029.6mb 50f 54f
1:06 13 18 mph 1029.4mb 50f 54f
1:00 11 15 mph 1029mb 50f 54f
12:54 9 15 mph 1029mb 50f 54f
12:48 8 13 mph 1029mb 50f 54f
12:42 9 17 mph 1028.9mb 50f 53f
12:36 6 13 mph 1028.9mb 50f 53f
12:30 9 13 mph 1028.9mb 50f 53f
12:24 8 10 mph 1029mb 50f 53f
12:18 7 11 mph 1029mb 50f 53f
12:12 9 11 mph 1029mb 50f 52f
12:06 9 13 mph 1029.3mb 50f 51f
12:00 11 22 mph 1029.5mb 50f 51f
11:54 9 15 mph 1029.4mb 50f 51f
11:48 11 22 mph 1029.5mb 50f 51f
11:42 7 9 mph 1029.5mb 50f 52f
11:36 7 10 mph 1029.4mb 50f 52f
11:30 6 8 mph 1029.5mb 50f 52f
11:24 7 8 mph 1029.4mb 50f 51f
11:18 6 11 mph 1029.4mb 50f 51f
11:12 10 20 mph 1029.3mb 50f 50f
11:06 14 18 mph 1029.4mb 50f 51f
11:00 13 15 mph 1029.3mb 50f 51f
10:54 11 15 mph 1029.3mb 50f 50f
10:48 14 20 mph - - -
10:42 9 11 mph 1029.3mb 50f 52f
10:36 7 9 mph 1029.2mb 50f 52f
10:30 8 9 mph 1029.2mb 50f 53f
10:24 8 11 mph 1029.1mb 50f 52f
10:18 10 14 mph 1029mb - -
10:12 8 10 mph 1029mb 50f 52f
10:06 6 8 mph 1028.9mb 50f 52f
10:00 7 8 mph 1028.9mb 50f 52f
9:54 5 6 mph 1028.7mb 50f 51f
9:48 7 8 mph 1028.6mb - -
9:42 6 8 mph 1028.5mb 50f 51f
9:36 7 14 mph 1028.3mb 50f 51f
9:30 10 18 mph 1028.2mb 50f 51f
9:24 10 14 mph 1028.2mb 50f 51f
9:18 11 15 mph 1028mb 50f 51f
9:12 11 14 mph 1028.1mb 50f 51f
9:06 8 13 mph 1028mb 50f 52f
9:00 7 14 mph 1028mb 50f 52f
8:54 10 14 mph 1028.1mb 50f 52f
8:48 6 9 mph 1028.1mb 50f 52f
8:42 7 9 mph 1028.1mb 50f 51f
8:36 6 10 mph 1028mb 50f 51f
8:30 8 10 mph 1027.9mb 50f 52f
8:24 8 9 mph 1027.9mb 50f 52f
8:18 7 9 mph 1027.9mb 50f 51f
8:12 8 10 mph 1027.8mb 50f 51f
8:06 7 10 mph 1027.7mb 50f 51f
8:00 7 14 mph 1027.6mb 50f 51f
7:54 10 13 mph 1027.4mb 50f 51f
7:48 5 7 mph 1027.4mb 50f 51f
7:42 6 7 mph 1027.3mb 50f 51f
7:30 7 9 mph 1027mb 50f 51f
7:24 8 11 mph 1026.9mb 50f 51f
7:18 9 13 mph 1026.7mb 50f 51f
7:12 8 11 mph 1026.6mb 50f 50f
7:06 7 10 mph 1026.5mb 50f 51f
7:00 8 11 mph 1026.4mb 50f 51f
6:54 9 11 mph 1026.3mb 50f 51f
6:48 13 15 mph 1026.2mb 50f 50f
6:42 9 14 mph 1026mb 50f 51f
6:36 6 8 mph 1026mb 50f 51f
6:30 7 11 mph 1025.8mb 50f 51f
6:24 6 9 mph 1025.7mb 50f 51f
6:18 8 10 mph 1025.6mb 50f 51f
6:12 8 13 mph 1025.5mb 50f 51f
6:06 8 11 mph 1025.4mb 50f 51f
6:00 8 10 mph 1025.2mb 50f 51f
5:54 9 11 mph 1025.2mb 50f 51f
5:48 8 10 mph 1025.1mb 50f 51f
5:42 10 11 mph 1025mb 50f 51f
5:36 10 11 mph 1024.9mb 50f 51f
5:30 8 14 mph 1024.9mb 50f 51f
5:24 10 13 mph 1024.8mb 50f 51f
5:18 10 13 mph 1024.7mb 50f 51f
5:12 10 13 mph 1024.7mb 50f 51f
5:06 7 11 mph 1024.6mb 50f 51f
5:00 11 13 mph 1024.5mb 50f 52f
4:54 8 10 mph 1024.6mb 50f 51f
4:48 9 11 mph 1024.5mb 50f 51f
4:42 9 11 mph 1024.4mb 50f 51f
4:36 9 11 mph 1024.4mb 50f 51f
4:30 8 9 mph 1024.4mb 50f 51f
4:24 8 11 mph 1024.3mb 50f 51f
4:18 10 11 mph 1024.2mb 50f 51f
4:12 9 11 mph 1024.2mb 50f 51f
4:06 9 10 mph 1024.1mb 50f 51f
4:00 10 13 mph 1024mb 50f 51f
3:54 11 15 mph 1024mb 50f 52f
3:48 11 15 mph 1024mb 50f 51f
3:42 13 17 mph 1024mb 50f 51f
3:36 14 17 mph 1024mb 50f 51f
3:30 11 15 mph 1023.9mb 50f 51f
3:24 9 14 mph 1023.8mb 50f 51f
3:18 11 17 mph 1023.8mb 50f 50f
3:12 15 22 mph 1023.8mb 50f 50f
3:06 17 29 mph 1023.8mb 50f 50f
3:00 14 21 mph 1023.6mb 50f 52f
2:54 13 15 mph 1023.4mb 50f 52f
2:48 11 16 mph 1023.4mb 50f 52f
2:42 8 14 mph 1023.3mb 50f 52f
2:36 13 15 mph 1023.3mb 50f 52f
2:30 14 16 mph 1023.4mb 50f 52f
2:24 11 15 mph 1023.4mb 50f 52f
2:18 14 16 mph 1023.4mb 50f 52f
2:12 13 17 mph 1023.3mb 50f 52f
2:06 13 15 mph 1023.2mb 50f 52f
2:00 13 15 mph 1023.1mb 50f 52f
1:54 11 15 mph 1022.9mb 50f 52f
1:48 11 14 mph 1022.9mb 50f 52f
1:42 10 14 mph 1022.9mb 50f 51f
1:36 11 16 mph 1022.8mb 50f 51f
1:30 11 15 mph 1022.7mb 50f 51f
1:24 11 14 mph 1022.7mb 50f 52f
1:18 13 14 mph 1022.7mb 50f 52f
1:12 9 14 mph 1022.7mb 50f 51f
1:06 9 15 mph 1022.7mb 50f 51f
1:00 11 15 mph 1022.7mb 50f 51f
12:54 6 8 mph 1022.7mb 50f 50f
12:48 1 7 mph 1022.6mb 50f 50f
12:42 6 11 mph 1022.4mb 50f 50f
12:36 5 9 mph 1022.5mb 50f 50f
12:30 9 11 mph 1022.4mb 50f 51f
12:24 9 11 mph 1022.3mb 50f 50f
12:18 8 14 mph 1022.3mb 50f 50f
12:12 9 15 mph 1022.4mb 50f 49f
12:06 14 18 mph 1022.4mb 50f 49f
ven. 03/27 11:54 15 20 mph 1022.3mb 50f 50f
11:36 16 22 mph 1022mb 50f 50f
11:30 18 22 mph 1021.9mb 50f 51f
11:00 15 21 mph 1021.4mb 50f 52f
10:48 8 14 mph 1021.2mb 50f 51f
10:42 8 14 mph 1021.2mb 50f 51f
10:36 11 17 mph 1021mb 50f 52f
10:30 14 18 mph 1021mb 50f 52f
10:24 13 17 mph 1021mb 50f 52f
10:18 14 16 mph 1020.9mb 50f 52f
10:12 13 17 mph 1020.6mb 50f 52f
10:06 14 20 mph 1020.5mb 50f 52f
10:00 10 17 mph 1020.5mb 50f 52f
9:54 10 14 mph 1020.5mb 50f 52f
9:48 14 17 mph 1020.5mb 50f 52f
9:42 10 14 mph 1020.2mb 50f 51f
9:36 11 16 mph 1020.2mb 50f 51f
9:30 13 17 mph 1020.1mb 50f 51f
9:24 10 17 mph 1020mb 50f 51f
9:18 11 18 mph 1020mb 50f 51f
9:12 10 16 mph 1019.8mb 51f 51f
9:06 8 14 mph 1019.8mb 51f 51f
9:00 9 14 mph 1019.7mb 50f 51f
8:54 11 16 mph 1019.7mb 50f 51f
8:48 10 15 mph 1019.6mb 50f 51f
8:42 8 11 mph 1019.5mb 50f 51f
8:36 9 15 mph 1019.5mb 50f 51f
8:30 9 13 mph 1019.5mb 50f 51f
8:24 8 11 mph 1019.3mb 50f 51f
8:06 10 16 mph 1019.2mb 51f 51f
8:00 13 15 mph 1019.1mb 51f 51f
7:54 13 17 mph 1019mb 51f 51f
7:48 13 16 mph 1018.8mb 51f 51f
7:42 14 17 mph 1018.7mb 51f 51f
7:36 13 17 mph 1018.7mb 51f 51f
7:30 14 18 mph 1018.7mb 51f 52f
7:24 15 20 mph 1018.5mb 51f 51f
7:18 18 22 mph 1018.4mb 51f 52f
7:12 15 20 mph 1018.2mb 51f 52f
7:06 17 24 mph 1018.1mb 51f 52f
7:00 22 30 mph 1018mb 51f 53f
6:48 14 21 mph 1017.5mb 51f 54f
6:42 14 20 mph 1017.4mb 51f 54f
6:36 8 15 mph 1017.4mb 51f 54f
6:30 8 16 mph 1017.4mb 51f 54f
6:24 9 16 mph 1017.4mb 51f 54f
6:18 9 16 mph 1017.4mb 51f 54f
6:12 11 22 mph 1017.4mb 51f 55f
6:06 15 21 mph 1017.4mb 51f 55f
6:00 11 21 mph 1017.4mb 51f 55f
5:54 14 22 mph 1017.3mb 51f 55f
5:48 13 21 mph 1017.4mb 51f 56f
5:42 8 21 mph 1017.3mb 51f 56f
5:36 10 15 mph 1017.4mb 51f 56f
5:30 10 17 mph 1017.4mb 51f 56f
5:18 10 15 mph 1017.5mb 51f 56f
5:12 9 13 mph 1017.4mb 51f 56f
5:06 9 14 mph 1017.6mb 51f 56f
5:00 11 18 mph 1017.6mb 51f 56f
4:54 11 18 mph 1017.7mb 51f 56f
4:48 14 21 mph 1017.7mb 51f -
4:42 15 22 mph 1017.7mb 51f 56f
4:36 15 18 mph 1017.7mb 51f 56f
4:30 13 20 mph 1017.6mb 51f 56f
4:24 11 15 mph 1017.7mb 51f 56f
4:18 13 18 mph 1017.8mb 51f 56f
4:12 15 18 mph 1017.8mb 51f 56f
4:06 16 24 mph 1017.8mb 51f 56f
4:00 15 20 mph 1017.8mb 51f 56f
3:48 13 18 mph 1018mb 51f 55f
3:42 13 23 mph 1018.2mb 51f 55f
3:36 14 23 mph 1018.2mb 51f 56f
3:30 15 22 mph 1018.2mb 51f 56f
3:24 14 22 mph 1018.1mb 51f 55f
3:18 15 20 mph 1018.1mb 51f 56f
3:12 14 22 mph 1018.1mb 51f 56f
3:06 14 20 mph 1018.1mb 51f 56f
3:00 14 17 mph 1018.2mb 51f 56f
2:54 10 16 mph 1018.2mb 51f 56f
2:36 15 18 mph 1018.2mb 51f 58f
2:30 11 16 mph 1018.2mb 51f 58f
2:24 9 17 mph 1018.3mb 51f 57f
2:18 13 16 mph 1018.5mb 50f 57f
2:12 14 16 mph 1018.5mb 50f 57f
2:06 13 18 mph 1018.6mb 50f 57f
2:00 13 15 mph 1018.5mb 50f 56f
1:54 10 13 mph 1018.6mb 50f 57f
1:48 11 15 mph 1018.7mb 50f 57f
1:42 9 16 mph 1018.9mb 50f 57f
1:36 9 14 mph 1018.8mb 50f 56f
1:30 10 14 mph 1018.9mb 50f 55f
1:24 7 13 mph 1018.9mb 50f 55f
1:18 7 9 mph 1019mb 50f 54f
1:12 6 7 mph 1019mb 50f 54f
1:06 6 7 mph 1019.1mb 50f 54f
1:00 5 6 mph 1019mb 50f 54f
12:54 6 7 mph 1019mb 50f 55f
12:48 6 8 mph 1019mb 50f 54f
12:42 7 8 mph 1019mb 50f 54f
12:36 6
mph
1018.9mb 50f 54f
12:30 5 6 mph 1019mb 50f 54f
12:24 6 7 mph 1019mb 50f 54f
12:06 5 6 mph 1019.2mb 50f 53f
12:00 2 6 mph - - -
11:54 6 8 mph 1019.3mb 50f 54f
11:48 5 7 mph 1019.2mb 50f 54f
11:42 2 6 mph 1019.4mb 50f 53f
11:36 5 8 mph 1019.5mb 50f 53f
11:30 6 8 mph 1019.6mb 50f 53f
11:24 7 10 mph 1019.6mb 50f 54f
11:18 5 8 mph 1019.6mb 50f 54f
11:12 6 10 mph 1019.6mb 50f 53f
11:06 3 9 mph 1019.7mb 50f 53f
11:00 9 13 mph 1019.7mb 50f 54f
10:48 8 9 mph 1019.8mb 50f 53f
10:42 9 14 mph 1019.8mb 50f 53f
10:36 6 11 mph 1019.8mb 50f 53f
10:30 6 11 mph 1019.8mb 50f 53f
10:24 5 8 mph 1019.8mb 50f 53f
10:18 9 13 mph 1019.7mb 50f 53f
10:12 7 9 mph 1019.7mb 50f 53f
10:06 7 9 mph 1019.7mb 50f 53f
10:00 6 8 mph 1019.6mb 50f 52f
9:54 3 6 mph 1019.6mb 50f 52f
9:48 2
mph
1019.5mb 50f 51f
9:42 1 5 mph 1019.4mb 50f 51f
9:36 2 5 mph 1019.4mb 50f 51f
9:30 3 5 mph 1019.3mb 50f 51f
9:24 1 3 mph 1019.2mb 50f 51f
9:18 1 3 mph 1019.1mb - -
9:12 3 6 mph 1019.1mb 50f 51f
9:06 1 2 mph 1019mb 50f 51f
9:00 1 2 mph 1018.9mb 50f 50f
8:54 1 2 mph 1018.8mb 50f 50f
8:48 1
mph
1018.8mb 50f -
8:42 1 3 mph 1018.7mb 50f 50f
8:36 3 6 mph 1018.7mb 50f 50f
8:30 2 3 mph 1018.7mb 50f 49f
8:24 5 7 mph 1018.6mb 50f 49f
8:18 3 7 mph 1018.5mb - -
8:12 6 7 mph 1018.5mb 50f 47f
8:06 5 6 mph 1018.5mb 50f 47f
8:00 6 7 mph 1018.5mb 50f 47f
7:54 6
mph
1018.3mb 50f 47f
7:48 3 6 mph 1018.2mb 50f 47f
7:42 5 6 mph 1018.2mb 50f 47f
7:36 3
mph
1018.2mb 49f 47f
7:30 2 3 mph 1018.2mb 49f 47f
7:24 1 2 mph 1018.3mb 49f 48f
7:18 2 3 mph 1018.2mb 49f 47f
7:12 3
mph
1018.2mb 49f 47f
7:06 3 5 mph 1018.2mb 49f 47f
7:00 3 5 mph 1018.2mb 49f 47f
6:54 3
mph
1018.1mb 49f 47f
6:48 3 5 mph 1018.1mb 49f 47f
6:42 3 6 mph 1018.1mb 49f 47f
6:36 5 6 mph 1018mb 49f 47f
6:30 1 2 mph 1017.9mb 49f 47f
6:24 1 3 mph 1017.9mb 49f 48f
6:18 2 6 mph 1017.7mb 49f 47f
6:12 1 3 mph 1017.7mb 49f 48f
6:06 2 3 mph 1017.7mb 49f 48f
6:00 2 5 mph 1017.8mb 49f 48f
5:54 3 6 mph 1017.9mb 49f 48f
5:48 2 5 mph 1017.8mb 49f 48f
5:42 2
mph
1017.8mb 49f 48f
5:36 1 2 mph 1017.9mb 49f 48f
5:30 2
mph
1017.9mb 49f 48f
5:24 1 2 mph 1017.8mb 49f 48f
5:18 2
mph
1018mb 50f -
5:12 2
mph
1018mb 50f 48f
5:06 2 3 mph 1018.1mb 50f 48f
5:00 3 5 mph 1018.1mb 50f 48f
4:54 2 3 mph 1018.1mb 50f 48f
4:48 3 5 mph 1018mb 50f 48f
4:42 3 5 mph 1018.1mb 50f 48f
4:36 5 6 mph 1018mb 50f 48f
4:30 1 5 mph 1018mb 50f 48f
4:24 3 6 mph 1018mb 50f 47f
4:18 3 5 mph 1018mb 49f 47f
4:12 3 5 mph 1018mb 49f 48f
4:06 2 5 mph 1018mb 49f 48f
4:00 3 5 mph 1018.1mb 49f 48f
3:54 2 3 mph 1018.2mb 49f 48f
3:48 1 3 mph 1018.3mb 49f 48f
3:42 2
mph
1018.3mb 49f 48f
3:36  -  1 mph 1018.3mb 49f 48f
3:30 1 2 mph 1018.3mb 49f 48f
3:24  -  1 mph 1018.4mb 49f 48f
3:18 1 2 mph 1018.5mb 49f 48f
3:12 2 3 mph 1018.5mb 49f 48f
3:06 2 3 mph 1018.6mb 49f 48f
3:00 3 5 mph 1018.7mb 49f 48f
2:54 5
mph
1018.7mb 49f 48f
2:48 3 5 mph - 49f 48f
2:42 3 5 mph - 49f 49f
2:36 3 5 mph - 49f 49f
2:30 3 5 mph 1019mb 49f 49f
2:24 2 3 mph 1019.1mb 49f 49f
2:18 2 3 mph 1019.3mb 50f 49f
2:12 1 2 mph 1019.3mb 50f 49f
2:06 1 2 mph 1019.4mb 50f 49f
2:00 1
mph
1019.5mb - -
1:54  -  1 mph 1019.5mb - -
1:48  -  1 mph 1019.6mb 49f 49f
1:42  -  1 mph 1019.6mb 49f 49f
1:36 1
mph
1019.8mb 49f 49f
1:30  -  1 mph 1019.9mb 49f 49f
1:24  -  1 mph 1019.9mb 49f 49f
1:18  -  2 mph 1019.9mb 49f 50f
1:12 2
mph
1019.9mb 49f 50f
1:06  -  1 mph 1019.9mb 49f 50f
1:00  -  1 mph 1020mb 49f 50f
12:54  -  1 mph 1020.1mb 49f 50f
12:48  -  1 mph 1020.2mb 49f 50f
12:42  -  2 mph 1020.3mb 49f 50f
12:36 1
mph
1020.4mb 49f 50f
12:30  -  1 mph 1020.5mb 49f 50f
12:24  -  1 mph 1020.5mb 49f 50f
12:18 1 2 mph 1020.5mb 49f 50f
12:12 1 2 mph 1020.6mb 49f 50f
12:06 2
mph
1020.6mb 50f 50f
12:00  -  2 mph 1020.7mb - 51f
jeu. 03/26 11:54  -  1 mph 1020.7mb - 51f
11:36 2 5 mph 1020.9mb 50f 52f
11:00  -  5 mph 1021.2mb 50f 52f
10:54  -  1 mph 1021.2mb 50f 52f
10:48  -  1 mph 1021.2mb 50f 53f
10:42  -  1 mph 1021.3mb 50f 53f
10:36  -  2 mph 1021.3mb 50f 54f
10:30 2 3 mph 1021.4mb 50f 54f
10:24 1 3 mph 1021.4mb 50f 53f
10:18  -  1 mph 1021.4mb 50f 53f
10:12  -  1 mph 1021.4mb 50f 53f
10:06 1 2 mph 1021.3mb 50f 53f
10:00 2 3 mph 1021.4mb 50f 55f
9:54 2 5 mph 1021.4mb 50f 53f
9:48 5
mph
1021.4mb 50f 53f
9:42 1
mph
1021.3mb 50f 55f
9:36  -  1 mph 1021.3mb 50f 55f
9:30  -  1 mph 1021.3mb 50f 54f
9:24  -  1 mph 1021.3mb 50f 54f
9:18  -  1 mph 1021.3mb 50f 55f
9:12  -  1 mph 1021.3mb 50f 54f
9:06  -  1 mph 1021.3mb 50f 54f
9:00  -  2 mph 1021.3mb 50f 54f
8:54 1 2 mph 1021.3mb 50f 55f
8:48 1 2 mph 1021.3mb 50f 55f
8:42 1 2 mph 1021.3mb 50f 55f
8:36 1 2 mph 1021.3mb 50f 56f
8:30 1 2 mph 1021.3mb 50f 56f
8:24 1
mph
1021.3mb 50f 56f
8:18  -  1 mph 1021.3mb 51f 57f
8:12  -  1 mph 1021.2mb 51f 57f
8:06 1
mph
1021.3mb 50f 57f
8:00  -  1 mph 1021.3mb 50f 56f
7:54 1 2 mph 1021.2mb 50f 56f
7:48  -  3 mph 1021.3mb 50f 55f
7:42 2 3 mph 1021.3mb 50f 55f
7:36 5 8 mph 1021.3mb 50f 55f
7:30 8
mph
1021.4mb 50f 56f
7:24 7 9 mph 1021.4mb 51f 56f
7:18 8 9 mph 1021.5mb 51f 56f
7:12 8 10 mph 1021.5mb 50f 56f
7:06 8 10 mph 1021.5mb 50f 56f
7:00 9 11 mph 1021.6mb 50f 56f
6:54 10 13 mph 1021.7mb 50f 56f
6:48 11 13 mph 1021.7mb 50f 56f
6:42 10 13 mph 1021.7mb 50f 56f
6:36 10 11 mph 1021.7mb 50f 56f
6:30 10 13 mph 1021.7mb 51f 56f
6:24 10 11 mph 1021.8mb 51f 56f
6:18 10 11 mph 1021.8mb 51f 57f
6:12 10 13 mph 1021.8mb 51f 57f
6:06 9 13 mph 1021.9mb 50f 57f
6:00 11 13 mph 1021.9mb 51f 57f
5:54 10 11 mph 1022mb 51f 57f
5:48 10 13 mph 1022mb 51f 57f
5:42 10 13 mph 1022mb 51f 57f
5:36 10 13 mph 1022.1mb 51f 57f
5:30 11 13 mph 1022.1mb 51f 58f
5:24 9 10 mph 1022.2mb 51f 57f
5:18 9 11 mph 1022.3mb - -
5:12 10 11 mph 1022.3mb 51f 57f
5:06 10 11 mph 1022.4mb 51f 57f
5:00 9 11 mph 1022.5mb 51f 57f
4:54 9 10 mph 1022.6mb 51f 56f
4:48 7 8 mph 1022.6mb 51f 56f
4:42 7 8 mph 1022.7mb 51f 56f
4:36 8
mph
1022.7mb 51f 57f
4:30 7
mph
1022.7mb 51f 57f
4:24 3 5 mph 1022.8mb 51f 55f
4:18  -  3 mph 1022.8mb 51f 57f
4:12 2 5 mph 1022.9mb 50f 57f
4:06 2 5 mph 1022.9mb 50f 56f
4:00 3 5 mph 1023mb 50f 55f
3:54 2 3 mph 1023.1mb 51f 56f
3:48 1 3 mph 1023.2mb 51f 57f
3:42 2 5 mph 1023.3mb 51f 56f
3:36 1 3 mph 1023.4mb 51f 58f
3:30  -  2 mph 1023.4mb 51f 58f
3:24 1 2 mph 1023.5mb 51f 57f
3:18  -  1 mph 1023.6mb 51f 58f
3:12  -  2 mph 1023.6mb 51f 56f
3:06 2 3 mph 1023.7mb 51f 55f
3:00 1 3 mph 1023.7mb 51f 55f
2:54 3 5 mph 1023.7mb 51f 55f
2:48 1 2 mph 1023.8mb 51f 56f
2:42 1 3 mph 1023.8mb 51f 56f
2:36 3
mph
1023.9mb 51f 55f
2:30 2
mph
1023.9mb 51f 55f
2:24 2
mph
1024mb 51f 57f
2:18  -  mph 1024.1mb 51f 59f
2:12  -  1 mph 1024.2mb 51f 56f
2:06 1 2 mph 1024.4mb 51f 54f
2:00 1 2 mph 1024.5mb 51f 54f
1:54 2
mph
1024.6mb 51f 54f
1:48 1 3 mph 1024.7mb 51f 53f
1:42  -  2 mph 1024.8mb 51f 53f
1:36 2 3 mph 1024.9mb 51f 53f
1:30 3 5 mph 1024.9mb 51f 52f
1:24 5 6 mph 1024.9mb 50f 51f
1:18 3 5 mph 1025mb 50f 50f
1:12 3 5 mph 1025mb 50f 50f
1:06 3 5 mph 1025.1mb 50f 50f
1:00 3
mph
1025.2mb 49f 50f
12:54 3 6 mph 1025.2mb 49f 50f
12:48 5
mph
1025.2mb 49f 51f
12:42 5
mph
1025.3mb 49f 51f
12:36 3
mph
1025.3mb 50f 52f
12:30 2 3 mph 1025.3mb 50f 53f
12:24 2 3 mph 1025.4mb 49f 54f
12:18  -  3 mph 1025.4mb 49f 54f
12:12 1 3 mph 1025.4mb 49f 55f
12:06 2 6 mph 1025.4mb 49f 55f
12:00 5 6 mph 1025.4mb 49f 54f
11:54 6
mph
1025.5mb 49f 53f
11:48 5 6 mph 1025.5mb 49f 53f
11:42  -  2 mph 1025.6mb 49f 51f
11:36  -  1 mph 1025.7mb 49f 52f
11:30  -  1 mph 1025.7mb 49f 51f
11:24  -  2 mph 1025.8mb 49f 50f
11:18 1 3 mph 1025.9mb 49f 49f
11:12 3
mph
1025.9mb 49f 49f
11:06 3
mph
1025.9mb 49f 48f
11:00  -  2 mph 1025.9mb 49f 49f
10:54 1 2 mph 1025.9mb 49f 48f
10:48 2 3 mph 1026mb 49f 48f
10:42 2 3 mph 1025.9mb 49f 48f
10:36 3 5 mph 1025.9mb 49f 48f
10:30 2 5 mph 1025.9mb 49f 49f
10:24 2 6 mph 1025.9mb 49f 49f
10:18 2 3 mph 1025.9mb 49f 49f
10:12 1 3 mph 1025.8mb 49f 48f
10:06  -  2 mph 1025.8mb 49f 48f
10:00  -  5 mph 1025.8mb 49f 48f
9:54 3 6 mph 1025.8mb 49f 48f
9:48 3 6 mph 1025.8mb 49f 48f
9:42 2 3 mph 1025.7mb 49f 48f
9:36 2 5 mph 1025.7mb 49f 48f
9:30 1 3 mph 1025.7mb 49f 48f
9:24 2 3 mph 1025.7mb 49f 48f
9:18 2 6 mph 1025.6mb 49f 48f
9:12 3 6 mph 1025.6mb 49f 48f
9:06 2 5 mph 1025.6mb 49f 48f
9:00 2 5 mph 1025.6mb 49f 48f
8:54 2 5 mph 1025.6mb 49f 48f
8:48 2 3 mph 1025.6mb 49f 48f
8:42 1 3 mph 1025.6mb 49f 48f
8:36 2 6 mph 1025.6mb 49f 48f
8:30 5 7 mph 1025.6mb 49f 48f
8:24 5 7 mph 1025.6mb 49f 48f
8:18 1 6 mph 1025.5mb 49f 48f
8:12 3 6 mph 1025.5mb 49f 48f
8:06 2 7 mph 1025.5mb 49f 47f
8:00 3 5 mph 1025.5mb 49f 47f
7:54 2 3 mph 1025.4mb 49f 47f
7:48 2 3 mph 1025.5mb 49f 47f
7:42 2 3 mph 1025.5mb 49f 47f
7:36 3
mph
1025.5mb 49f 47f
7:30 1 5 mph 1025.5mb 49f 47f
7:24 3 5 mph 1025.5mb 49f 47f
7:18 2 3 mph 1025.5mb 49f 47f
7:12 1 3 mph 1025.4mb 49f 47f
7:06 1 3 mph 1025.4mb 49f 48f
7:00 2 3 mph 1025.5mb 49f 48f
6:54  -  7 mph 1025.5mb 49f 48f
6:48 5 6 mph 1025.6mb 49f 48f
6:42 6 7 mph 1025.6mb 49f 48f
6:36 6 7 mph 1025.6mb 49f 48f
6:30 5 6 mph 1025.6mb 49f 48f
6:24 3 5 mph 1025.6mb 49f 48f
6:18 3
mph
1025.7mb 49f 48f
6:12 2 3 mph 1025.8mb 49f 48f
6:06 2 5 mph 1025.8mb 49f 48f
6:00 2 3 mph 1025.9mb 49f 48f
5:54 2 5 mph 1025.9mb 49f 48f
5:48 3 6 mph 1026mb 49f 48f
5:42 2 5 mph 1026mb 49f 48f
5:36 3 5 mph 1026mb 49f 48f
5:30 3 5 mph 1026mb 49f 48f
5:24 1 3 mph 1026mb 49f 48f
5:18 2 3 mph 1026mb 49f 48f
5:12 2 5 mph 1026mb 49f 48f
5:06 2 5 mph 1026mb 49f 48f
5:00 1 5 mph 1026mb 49f 48f
4:54 2 5 mph 1026.1mb 49f 48f
4:48 2 5 mph 1026.1mb 49f 48f
4:42 2 5 mph 1026.2mb 49f 48f
4:36 2 5 mph 1026.2mb 49f 48f
4:30 2 6 mph 1026.2mb 49f 48f
4:24 3 5 mph 1026.2mb 49f 49f
4:18  -  2 mph 1026.3mb 49f 48f
4:12 1 3 mph 1026.4mb 49f 48f
4:06 2 3 mph 1026.4mb 49f 48f
4:00 2 5 mph 1026.4mb 49f 48f
3:54 5 7 mph 1026.3mb 49f 48f
3:48 6 8 mph 1026.3mb 49f 48f
3:42 6 8 mph 1026.4mb 49f 48f
3:36 5 7 mph 1026.4mb 49f 48f
3:30 3 7 mph 1026.4mb 49f 49f
3:24 5 7 mph 1026.5mb 49f 49f
3:18 3 6 mph 1026.6mb 49f 49f
3:12 2 3 mph 1026.6mb 49f 49f
3:06 1 3 mph 1026.7mb 49f 49f
3:00  -  mph 1026.7mb 49f 49f
2:54  -  mph 1026.8mb 49f 49f
2:48  -  mph 1026.7mb 49f -
2:42 3 6 mph 1026.7mb 49f -
2:36 6 9 mph 1026.7mb 49f -
2:30 5 10 mph 1026.8mb 49f 49f
2:24 5 6 mph 1026.8mb 49f 49f
2:18 3 8 mph 1026.8mb 49f 49f
2:12 6 8 mph 1026.8mb 49f 50f
2:06 2 5 mph 1026.8mb 49f 50f
2:00 2
mph
1026.9mb 49f 50f
1:54 2
mph
1026.9mb 49f 50f
1:48  -  2 mph 1026.9mb 49f 50f
1:42 2
mph
1027mb 49f 50f